createdAt,value
2022-10-05T00:00:53.446Z,2.97
2022-10-05T00:01:56.600Z,3.10
2022-10-05T00:02:58.554Z,3.17
2022-10-05T00:04:23.968Z,3.27
2022-10-05T00:05:34.127Z,2.90
2022-10-05T00:06:35.975Z,2.90
2022-10-05T00:07:37.727Z,3.00
2022-10-05T00:08:39.732Z,3.13
2022-10-05T00:09:42.109Z,3.30
2022-10-05T00:10:46.452Z,2.87
2022-10-05T00:11:49.932Z,3.00
2022-10-05T00:12:51.758Z,3.33
2022-10-05T00:13:53.538Z,3.00
2022-10-05T00:15:00.563Z,3.00
2022-10-05T00:16:16.234Z,3.43
2022-10-05T00:17:30.164Z,2.83
2022-10-05T00:18:32.840Z,2.77
2022-10-05T00:19:39.628Z,3.03
2022-10-05T00:20:43.775Z,3.30
2022-10-05T00:21:45.559Z,3.40
2022-10-05T00:22:48.082Z,3.10
2022-10-05T00:23:50.687Z,3.00
2022-10-05T00:24:59.942Z,3.40
2022-10-05T00:26:24.967Z,3.13
2022-10-05T00:27:36.482Z,2.70
2022-10-05T00:28:38.284Z,3.00
2022-10-05T00:29:40.156Z,3.27
2022-10-05T00:30:41.957Z,3.37
2022-10-05T00:31:43.680Z,3.17
2022-10-05T00:32:46.839Z,3.00
2022-10-05T00:33:49.487Z,3.33
2022-10-05T00:34:51.669Z,3.50
2022-10-05T00:35:54.201Z,3.37
2022-10-05T00:36:55.969Z,3.13
2022-10-05T00:37:57.696Z,3.20
2022-10-05T00:39:01.881Z,3.00
2022-10-05T00:40:43.753Z,3.10
2022-10-05T00:42:09.778Z,2.70
2022-10-05T00:43:23.354Z,3.00
2022-10-05T00:44:39.207Z,3.13
2022-10-05T00:45:59.997Z,3.07
2022-10-05T00:47:16.946Z,3.10
2022-10-05T00:48:43.049Z,3.20
2022-10-05T00:50:13.690Z,3.20
2022-10-05T00:51:29.262Z,3.10
2022-10-05T00:53:01.930Z,2.83
2022-10-05T00:54:43.031Z,2.90
2022-10-05T00:56:35.859Z,2.77
2022-10-05T00:57:44.152Z,2.70
2022-10-05T00:58:55.967Z,2.77
2022-10-05T01:00:15.779Z,2.87
2022-10-05T01:01:45.109Z,3.13
2022-10-05T01:03:19.035Z,3.00
2022-10-05T01:04:53.955Z,2.97
2022-10-05T01:06:16.318Z,3.20
2022-10-05T01:08:24.873Z,2.80
2022-10-05T01:10:10.707Z,2.67
2022-10-05T01:11:35.861Z,2.63
2022-10-05T01:13:00.131Z,2.87
2022-10-05T01:14:10.316Z,3.27
2022-10-05T01:15:27.458Z,3.30
2022-10-05T01:16:48.837Z,3.10
2022-10-05T01:18:21.084Z,3.10
2022-10-05T01:19:55.360Z,3.10
2022-10-05T01:21:21.400Z,3.07
2022-10-05T01:22:49.915Z,3.20
2022-10-05T01:24:10.113Z,3.13
2022-10-05T01:25:48.305Z,3.20
2022-10-05T01:27:15.785Z,3.20
2022-10-05T01:28:27.993Z,3.03
2022-10-05T01:29:52.170Z,3.20
2022-10-05T01:31:34.547Z,3.40
2022-10-05T01:33:00.004Z,3.03
2022-10-05T01:34:27.304Z,3.40
2022-10-05T01:35:47.040Z,3.40
2022-10-05T01:37:25.712Z,3.30
2022-10-05T01:39:01.134Z,3.13
2022-10-05T01:40:16.154Z,2.97
2022-10-05T01:42:01.583Z,3.10
2022-10-05T01:43:22.651Z,3.07
2022-10-05T01:44:51.435Z,3.20
2022-10-05T01:46:22.558Z,3.37
2022-10-05T01:47:47.837Z,3.30
2022-10-05T01:49:11.919Z,3.33
2022-10-05T01:50:49.833Z,3.60
2022-10-05T01:52:16.972Z,3.03
2022-10-05T01:54:18.084Z,3.40
2022-10-05T01:55:57.315Z,3.20
2022-10-05T01:57:29.969Z,3.00
2022-10-05T01:58:56.018Z,3.50
2022-10-05T02:00:11.237Z,3.47
2022-10-05T02:02:15.365Z,3.50
2022-10-05T02:03:30.595Z,2.80
2022-10-05T02:05:01.574Z,3.63
2022-10-05T02:06:17.437Z,2.90
2022-10-05T02:07:49.481Z,3.47
2022-10-05T02:09:05.641Z,3.47
2022-10-05T02:10:31.148Z,3.60
2022-10-05T02:11:34.129Z,3.40
2022-10-05T02:12:38.842Z,3.53
2022-10-05T02:14:20.267Z,3.27
2022-10-05T02:15:32.669Z,3.20
2022-10-05T02:16:41.090Z,3.90
2022-10-05T02:17:50.277Z,3.40
2022-10-05T02:19:18.400Z,3.70
2022-10-05T02:20:29.704Z,3.30
2022-10-05T02:21:36.350Z,3.60
2022-10-05T02:22:46.532Z,3.63
2022-10-05T02:23:54.494Z,3.60
2022-10-05T02:25:06.425Z,3.47
2022-10-05T02:26:12.640Z,3.40
2022-10-05T02:27:24.358Z,3.40
2022-10-05T02:28:47.928Z,3.60
2022-10-05T02:29:56.105Z,3.33
2022-10-05T02:31:14.059Z,3.60
2022-10-05T02:32:32.543Z,3.97
2022-10-05T02:33:35.334Z,3.60
2022-10-05T02:34:41.171Z,3.90
2022-10-05T02:35:42.907Z,3.97
2022-10-05T02:36:47.089Z,3.73
2022-10-05T02:38:36.516Z,3.80
2022-10-05T02:40:18.686Z,3.77
2022-10-05T02:42:03.285Z,3.60
2022-10-05T02:43:23.828Z,3.27
2022-10-05T02:44:44.280Z,3.50
2022-10-05T02:46:18.931Z,3.83
2022-10-05T02:47:40.144Z,3.63
2022-10-05T02:49:02.629Z,3.50
2022-10-05T02:50:42.248Z,3.63
2022-10-05T02:52:21.696Z,3.60
2022-10-05T02:53:32.783Z,3.20
2022-10-05T02:55:13.737Z,3.60
2022-10-05T02:56:27.285Z,3.70
2022-10-05T02:57:39.128Z,3.90
2022-10-05T02:59:03.743Z,3.80
2022-10-05T03:00:22.476Z,3.87
2022-10-05T03:01:50.409Z,3.67
2022-10-05T03:03:06.447Z,3.40
2022-10-05T03:04:36.900Z,3.90
2022-10-05T03:05:51.364Z,3.13
2022-10-05T03:07:20.555Z,3.50
2022-10-05T03:08:52.885Z,3.43
2022-10-05T03:10:14.736Z,3.40
2022-10-05T03:11:45.616Z,3.53
2022-10-05T03:13:05.362Z,3.47
2022-10-05T03:14:46.622Z,3.40
2022-10-05T03:16:00.314Z,3.23
2022-10-05T03:17:25.378Z,3.20
2022-10-05T03:18:47.496Z,3.60
2022-10-05T03:20:07.032Z,3.67
2022-10-05T03:21:17.612Z,3.47
2022-10-05T03:23:03.461Z,3.70
2022-10-05T03:24:35.431Z,3.67
2022-10-05T03:26:07.136Z,3.17
2022-10-05T03:27:18.349Z,3.43
2022-10-05T03:28:28.621Z,3.33
2022-10-05T03:29:50.503Z,3.70
2022-10-05T03:31:44.873Z,3.80
2022-10-05T03:33:01.300Z,3.50
2022-10-05T03:34:35.617Z,3.70
2022-10-05T03:35:49.124Z,3.10
2022-10-05T03:37:20.692Z,3.80
2022-10-05T03:38:30.341Z,3.60
2022-10-05T03:39:46.830Z,3.67
2022-10-05T03:41:16.185Z,3.13
2022-10-05T03:42:17.814Z,3.13
2022-10-05T03:43:43.652Z,3.77
2022-10-05T03:45:30.653Z,3.17
2022-10-05T03:47:35.861Z,3.70
2022-10-05T03:48:51.839Z,3.40
2022-10-05T03:50:13.163Z,3.23
2022-10-05T03:51:29.731Z,3.47
2022-10-05T03:53:06.733Z,3.77
2022-10-05T03:54:22.345Z,3.23
2022-10-05T03:55:36.019Z,3.10
2022-10-05T03:56:50.540Z,3.13
2022-10-05T03:57:58.471Z,3.50
2022-10-05T03:59:18.380Z,4.20
2022-10-05T04:00:23.473Z,3.27
2022-10-05T04:01:43.054Z,3.60
2022-10-05T04:03:15.591Z,3.70
2022-10-05T04:04:32.802Z,3.57
2022-10-05T04:05:48.473Z,3.53
2022-10-05T04:06:54.438Z,3.63
2022-10-05T04:08:07.021Z,3.60
2022-10-05T04:09:19.115Z,3.47
2022-10-05T04:10:43.152Z,3.40
2022-10-05T04:12:23.389Z,3.90
2022-10-05T04:14:12.096Z,3.63
2022-10-05T04:15:37.564Z,3.50
2022-10-05T04:16:47.104Z,3.43
2022-10-05T04:18:19.957Z,3.80
2022-10-05T04:19:40.285Z,3.60
2022-10-05T04:20:52.057Z,3.20
2022-10-05T04:22:20.883Z,3.73
2022-10-05T04:23:44.499Z,3.27
2022-10-05T04:24:56.203Z,3.30
2022-10-05T04:26:09.411Z,3.70
2022-10-05T04:27:30.847Z,3.63
2022-10-05T04:29:05.917Z,3.30
2022-10-05T04:30:24.393Z,3.30
2022-10-05T04:32:02.110Z,3.37
2022-10-05T04:33:12.478Z,3.40
2022-10-05T04:34:57.048Z,3.60
2022-10-05T04:36:07.796Z,3.40
2022-10-05T04:37:26.980Z,3.33
2022-10-05T04:38:48.313Z,4.27
2022-10-05T04:40:30.938Z,3.50
2022-10-05T04:42:35.890Z,3.60
2022-10-05T04:43:54.605Z,3.80
2022-10-05T04:45:37.030Z,3.90
2022-10-05T04:47:06.825Z,4.03
2022-10-05T04:48:46.506Z,3.63
2022-10-05T04:50:24.111Z,3.80
2022-10-05T04:51:55.926Z,3.47
2022-10-05T04:53:19.419Z,3.83
2022-10-05T04:55:08.664Z,4.07
2022-10-05T04:56:27.761Z,3.87
2022-10-05T04:57:47.045Z,4.03
2022-10-05T04:59:16.599Z,4.37
2022-10-05T05:00:28.255Z,3.87
2022-10-05T05:02:04.550Z,3.93
2022-10-05T05:03:34.606Z,3.60
2022-10-05T05:05:13.328Z,3.97
2022-10-05T05:06:33.262Z,4.00
2022-10-05T05:07:49.349Z,4.20
2022-10-05T05:09:27.202Z,3.90
2022-10-05T05:11:04.423Z,4.30
2022-10-05T05:12:51.085Z,4.07
2022-10-05T05:13:58.401Z,3.90
2022-10-05T05:15:31.554Z,3.80
2022-10-05T05:16:43.880Z,4.00
2022-10-05T05:18:26.480Z,4.07
2022-10-05T05:20:11.379Z,4.23
2022-10-05T05:21:52.677Z,4.07
2022-10-05T05:23:35.110Z,3.50
2022-10-05T05:25:36.898Z,4.00
2022-10-05T05:27:15.675Z,3.80
2022-10-05T05:28:57.703Z,4.03
2022-10-05T05:30:25.028Z,3.93
2022-10-05T05:31:55.515Z,4.27
2022-10-05T05:33:54.198Z,4.50
2022-10-05T05:35:23.448Z,4.33
2022-10-05T05:36:54.415Z,4.17
2022-10-05T05:38:14.741Z,3.80
2022-10-05T05:40:02.313Z,4.37
2022-10-05T05:41:22.556Z,3.97
2022-10-05T05:42:33.159Z,4.67
2022-10-05T05:44:11.775Z,4.63
2022-10-05T05:45:49.513Z,4.03
2022-10-05T05:47:04.411Z,4.00
2022-10-05T05:48:15.182Z,3.93
2022-10-05T05:49:35.816Z,4.30
2022-10-05T05:51:04.010Z,3.87
2022-10-05T05:52:18.257Z,3.93
2022-10-05T05:53:36.710Z,3.93
2022-10-05T05:54:53.129Z,4.27
2022-10-05T05:56:06.954Z,3.90
2022-10-05T05:57:21.918Z,3.97
2022-10-05T05:58:32.871Z,3.87
2022-10-05T05:59:50.993Z,4.00
2022-10-05T06:01:30.599Z,4.50
2022-10-05T06:03:00.627Z,4.10
2022-10-05T06:04:18.105Z,3.73
2022-10-05T06:05:43.617Z,4.00
2022-10-05T06:06:52.481Z,3.90
2022-10-05T06:07:58.218Z,4.27
2022-10-05T06:09:06.495Z,4.17
2022-10-05T06:10:38.252Z,4.13
2022-10-05T06:11:54.188Z,4.30
2022-10-05T06:13:03.909Z,3.83
2022-10-05T06:14:18.443Z,3.87
2022-10-05T06:15:38.502Z,3.83
2022-10-05T06:17:03.661Z,3.97
2022-10-05T06:18:14.036Z,4.30
2022-10-05T06:19:20.366Z,4.10
2022-10-05T06:20:38.169Z,3.97
2022-10-05T06:22:06.770Z,3.90
2022-10-05T06:23:23.844Z,4.40
2022-10-05T06:24:35.936Z,4.20
2022-10-05T06:26:10.831Z,4.40
2022-10-05T06:27:38.563Z,3.93
2022-10-05T06:28:42.224Z,3.90
2022-10-05T06:30:13.460Z,3.80
2022-10-05T06:31:34.074Z,3.80
2022-10-05T06:32:50.796Z,4.33
2022-10-05T06:34:14.669Z,4.60
2022-10-05T06:36:03.161Z,4.30
2022-10-05T06:37:29.587Z,3.70
2022-10-05T06:39:10.973Z,3.83
2022-10-05T06:40:45.367Z,3.63
2022-10-05T06:42:23.769Z,4.10
2022-10-05T06:43:59.636Z,3.93
2022-10-05T06:45:26.571Z,3.83
2022-10-05T06:46:59.169Z,3.63
2022-10-05T06:48:31.426Z,3.60
2022-10-05T06:50:09.709Z,4.10
2022-10-05T06:51:39.174Z,3.97
2022-10-05T06:53:33.261Z,3.67
2022-10-05T06:55:02.551Z,3.60
2022-10-05T06:56:59.753Z,3.80
2022-10-05T06:58:30.507Z,4.30
2022-10-05T07:00:02.755Z,3.73
2022-10-05T07:01:18.199Z,4.10
2022-10-05T07:02:39.490Z,4.50
2022-10-05T07:04:19.400Z,3.93
2022-10-05T07:06:03.766Z,4.53
2022-10-05T07:07:21.621Z,4.33
2022-10-05T07:09:20.130Z,4.20
2022-10-05T07:10:38.104Z,3.73
2022-10-05T07:12:07.860Z,4.17
2022-10-05T07:14:00.555Z,3.97
2022-10-05T07:15:20.848Z,4.10
2022-10-05T07:16:52.485Z,4.80
2022-10-05T07:18:25.929Z,4.93
2022-10-05T07:20:10.733Z,7.57
2022-10-05T07:21:27.224Z,5.47
2022-10-05T07:22:54.759Z,5.57
2022-10-05T07:24:09.895Z,4.70
2022-10-05T07:25:50.235Z,4.17
2022-10-05T07:27:20.992Z,3.73
2022-10-05T07:28:39.488Z,4.60
2022-10-05T07:30:12.314Z,4.73
2022-10-05T07:31:33.025Z,4.00
2022-10-05T07:32:39.814Z,4.00
2022-10-05T07:34:04.878Z,4.73
2022-10-05T07:35:43.054Z,4.10
2022-10-05T07:37:08.391Z,4.10
2022-10-05T07:38:38.546Z,4.13
2022-10-05T07:40:01.050Z,4.03
2022-10-05T07:41:44.023Z,4.33
2022-10-05T07:42:59.897Z,4.27
2022-10-05T07:44:36.940Z,4.27
2022-10-05T07:46:05.624Z,4.20
2022-10-05T07:47:18.680Z,4.50
2022-10-05T07:48:35.385Z,4.50
2022-10-05T07:49:58.698Z,4.60
2022-10-05T07:51:15.736Z,4.40
2022-10-05T07:52:34.625Z,4.37
2022-10-05T07:53:51.679Z,4.37
2022-10-05T07:55:07.636Z,3.77
2022-10-05T07:56:32.308Z,3.93
2022-10-05T07:57:44.713Z,3.90
2022-10-05T07:58:54.916Z,3.90
2022-10-05T08:00:04.867Z,3.60
2022-10-05T08:01:26.753Z,4.17
2022-10-05T08:02:49.368Z,3.80
2022-10-05T08:03:56.854Z,3.97
2022-10-05T08:05:16.256Z,4.30
2022-10-05T08:06:57.808Z,3.83
2022-10-05T08:08:18.124Z,3.60
2022-10-05T08:09:50.487Z,4.00
2022-10-05T08:11:13.420Z,3.77
2022-10-05T08:12:49.768Z,3.63
2022-10-05T08:13:57.038Z,3.50
2022-10-05T08:15:16.354Z,3.77
2022-10-05T08:16:19.643Z,3.93
2022-10-05T08:17:44.847Z,3.93
2022-10-05T08:19:11.001Z,3.70
2022-10-05T08:20:35.325Z,3.80
2022-10-05T08:22:03.779Z,3.27
2022-10-05T08:23:38.878Z,3.60
2022-10-05T08:24:56.866Z,3.53
2022-10-05T08:26:51.742Z,3.63
2022-10-05T08:28:24.169Z,3.97
2022-10-05T08:29:48.460Z,4.10
2022-10-05T08:31:08.404Z,3.83
2022-10-05T08:32:36.766Z,4.23
2022-10-05T08:34:12.087Z,3.80
2022-10-05T08:35:49.513Z,3.83
2022-10-05T08:37:27.553Z,3.40
2022-10-05T08:38:34.120Z,3.97
2022-10-05T08:39:45.154Z,4.20
2022-10-05T08:41:11.401Z,4.27
2022-10-05T08:42:30.843Z,3.77
2022-10-05T08:44:33.264Z,3.70
2022-10-05T08:46:25.848Z,3.73
2022-10-05T08:47:55.330Z,3.50
2022-10-05T08:49:14.882Z,3.70
2022-10-05T08:50:50.038Z,3.83
2022-10-05T08:52:37.335Z,3.47
2022-10-05T08:54:07.690Z,3.30
2022-10-05T08:55:15.290Z,3.77
2022-10-05T08:57:05.898Z,4.17
2022-10-05T08:58:45.223Z,3.77
2022-10-05T09:00:23.718Z,3.13
2022-10-05T09:01:51.974Z,3.50
2022-10-05T09:03:34.351Z,3.73
2022-10-05T09:04:42.315Z,3.30
2022-10-05T09:06:15.990Z,3.80
2022-10-05T09:07:24.297Z,3.43
2022-10-05T09:09:04.978Z,3.67
2022-10-05T09:10:22.333Z,3.47
2022-10-05T09:11:37.127Z,3.10
2022-10-05T09:12:57.284Z,3.20
2022-10-05T09:14:24.878Z,3.40
2022-10-05T09:16:18.001Z,3.63
2022-10-05T09:18:15.757Z,3.23
2022-10-05T09:20:01.636Z,3.47
2022-10-05T09:21:42.174Z,3.17
2022-10-05T09:23:35.940Z,3.30
2022-10-05T09:25:08.202Z,3.40
2022-10-05T09:26:31.851Z,3.20
2022-10-05T09:27:43.499Z,3.37
2022-10-05T09:28:48.051Z,3.60
2022-10-05T09:30:20.621Z,3.43
2022-10-05T09:31:43.905Z,3.77
2022-10-05T09:33:10.608Z,3.70
2022-10-05T09:34:31.750Z,3.97
2022-10-05T09:36:24.911Z,3.30
2022-10-05T09:38:08.258Z,3.23
2022-10-05T09:39:19.132Z,3.20
2022-10-05T09:40:55.032Z,3.40
2022-10-05T09:43:03.698Z,2.97
2022-10-05T09:44:33.893Z,3.17
2022-10-05T09:46:04.860Z,2.70
2022-10-05T09:47:41.744Z,2.80
2022-10-05T09:48:58.145Z,3.13
2022-10-05T09:50:48.105Z,3.17
2022-10-05T09:52:21.506Z,2.93
2022-10-05T09:54:13.934Z,3.03
2022-10-05T09:56:15.996Z,2.90
2022-10-05T09:57:53.143Z,2.57
2022-10-05T09:59:39.676Z,2.93
2022-10-05T10:01:03.597Z,2.67
2022-10-05T10:02:27.498Z,2.90
2022-10-05T10:04:06.958Z,2.50
2022-10-05T10:05:33.704Z,2.60
2022-10-05T10:07:13.222Z,2.40
2022-10-05T10:09:21.199Z,2.60
2022-10-05T10:11:09.034Z,2.57
2022-10-05T10:12:38.132Z,2.47
2022-10-05T10:14:20.904Z,2.40
2022-10-05T10:15:59.630Z,2.25
2022-10-05T10:17:22.346Z,2.30
2022-10-05T10:18:24.000Z,2.28
2022-10-05T10:19:56.296Z,2.00
2022-10-05T10:21:13.533Z,1.83
2022-10-05T10:22:43.329Z,2.25
2022-10-05T10:24:00.511Z,2.20
2022-10-05T10:25:11.273Z,2.10
2022-10-05T10:27:02.774Z,1.63
2022-10-05T10:28:19.912Z,2.05
2022-10-05T10:29:42.874Z,2.30
2022-10-05T10:31:09.090Z,1.83
2022-10-05T10:32:43.594Z,1.67
2022-10-05T10:34:07.819Z,1.63
2022-10-05T10:35:31.727Z,1.80
2022-10-05T10:37:18.465Z,2.00
2022-10-05T10:38:41.311Z,2.45
2022-10-05T10:40:23.323Z,2.20
2022-10-05T10:41:56.653Z,2.20
2022-10-05T10:43:32.360Z,1.77
2022-10-05T10:44:51.510Z,1.80
2022-10-05T10:46:17.800Z,1.60
2022-10-05T10:47:31.493Z,1.70
2022-10-05T10:49:00.069Z,1.60
2022-10-05T10:50:10.527Z,1.70
2022-10-05T10:51:36.583Z,1.52
2022-10-05T10:53:12.327Z,1.20
2022-10-05T10:54:27.357Z,1.45
2022-10-05T10:55:57.026Z,1.90
2022-10-05T10:57:17.682Z,1.15
2022-10-05T10:58:58.860Z,1.55
2022-10-05T11:00:26.845Z,1.65
2022-10-05T11:02:15.212Z,1.23
2022-10-05T11:04:12.758Z,1.17
2022-10-05T11:05:38.959Z,1.58
2022-10-05T11:06:53.817Z,1.30
2022-10-05T11:08:20.074Z,1.70
2022-10-05T11:09:39.612Z,1.25
2022-10-05T11:10:53.752Z,1.50
2022-10-05T11:12:17.757Z,1.67
2022-10-05T11:13:55.588Z,1.48
2022-10-05T11:15:07.682Z,1.42
2022-10-05T11:16:33.777Z,1.20
2022-10-05T11:18:16.632Z,1.40
2022-10-05T11:20:05.303Z,1.30
2022-10-05T11:21:33.824Z,1.25
2022-10-05T11:22:44.457Z,1.35
2022-10-05T11:24:28.071Z,1.60
2022-10-05T11:25:41.369Z,1.25
2022-10-05T11:27:03.177Z,1.25
2022-10-05T11:28:52.837Z,1.27
2022-10-05T11:30:41.159Z,1.20
2022-10-05T11:31:55.084Z,1.50
2022-10-05T11:33:14.800Z,1.20
2022-10-05T11:34:31.383Z,1.13
2022-10-05T11:36:03.554Z,1.30
2022-10-05T11:37:43.868Z,1.10
2022-10-05T11:39:25.866Z,1.10
2022-10-05T11:40:44.609Z,1.08
2022-10-05T11:42:10.234Z,1.20
2022-10-05T11:43:42.928Z,0.90
2022-10-05T11:45:21.895Z,1.20
2022-10-05T11:47:02.808Z,0.90
2022-10-05T11:48:22.753Z,1.10
2022-10-05T11:49:46.308Z,1.10
2022-10-05T11:51:09.089Z,0.98
2022-10-05T11:52:28.736Z,1.10
2022-10-05T11:53:49.028Z,1.00
2022-10-05T11:55:40.895Z,1.00
2022-10-05T11:56:54.664Z,1.10
2022-10-05T11:58:12.760Z,1.02
2022-10-05T11:59:52.825Z,1.60
2022-10-05T12:01:37.204Z,1.33
2022-10-05T12:03:03.783Z,1.13
2022-10-05T12:04:24.451Z,1.15
2022-10-05T12:06:06.020Z,1.13
2022-10-05T12:07:16.635Z,1.17
2022-10-05T12:08:33.482Z,1.00
2022-10-05T12:10:16.911Z,1.00
2022-10-05T12:11:42.707Z,1.50
2022-10-05T12:13:02.532Z,1.08
2022-10-05T12:14:30.213Z,1.60
2022-10-05T12:15:44.653Z,2.20
2022-10-05T12:17:01.634Z,1.50
2022-10-05T12:18:16.316Z,1.60
2022-10-05T12:19:44.033Z,1.30
2022-10-05T12:20:56.176Z,1.52
2022-10-05T12:22:09.814Z,1.50
2022-10-05T12:23:21.134Z,1.27
2022-10-05T12:24:28.623Z,1.25
2022-10-05T12:26:00.932Z,1.17
2022-10-05T12:27:25.214Z,1.48
2022-10-05T12:28:42.973Z,1.38
2022-10-05T12:30:00.439Z,1.33
2022-10-05T12:31:24.595Z,1.48
2022-10-05T12:33:20.796Z,1.52
2022-10-05T12:34:48.538Z,1.48
2022-10-05T12:36:00.198Z,1.35
2022-10-05T12:37:46.603Z,1.13
2022-10-05T12:39:43.602Z,1.27
2022-10-05T12:40:56.735Z,3.53
2022-10-05T12:42:10.232Z,2.28
2022-10-05T12:43:46.801Z,1.83
2022-10-05T12:45:05.839Z,1.58
2022-10-05T12:46:57.436Z,1.50
2022-10-05T12:48:07.786Z,1.60
2022-10-05T12:49:15.209Z,1.52
2022-10-05T12:50:28.179Z,1.50
2022-10-05T12:52:00.091Z,1.67
2022-10-05T12:53:23.350Z,1.73
2022-10-05T12:54:36.915Z,1.45
2022-10-05T12:56:21.459Z,1.40
2022-10-05T12:57:44.201Z,1.50
2022-10-05T12:58:57.785Z,1.25
2022-10-05T13:00:22.990Z,1.60
2022-10-05T13:01:48.337Z,2.07
2022-10-05T13:03:09.798Z,2.30
2022-10-05T13:04:52.237Z,1.70
2022-10-05T13:06:29.503Z,1.70
2022-10-05T13:08:17.987Z,1.73
2022-10-05T13:09:53.384Z,1.50
2022-10-05T13:11:14.861Z,1.65
2022-10-05T13:12:29.784Z,1.60
2022-10-05T13:14:07.336Z,1.50
2022-10-05T13:15:31.431Z,1.63
2022-10-05T13:17:21.330Z,1.63
2022-10-05T13:18:50.956Z,1.50
2022-10-05T13:20:21.498Z,1.70
2022-10-05T13:21:45.780Z,1.67
2022-10-05T13:23:00.524Z,1.47
2022-10-05T13:24:24.600Z,1.60
2022-10-05T13:25:34.668Z,2.05
2022-10-05T13:26:46.170Z,1.77
2022-10-05T13:28:26.195Z,1.63
2022-10-05T13:29:45.490Z,1.53
2022-10-05T13:31:08.000Z,1.70
2022-10-05T13:32:25.950Z,1.97
2022-10-05T13:34:00.361Z,1.55
2022-10-05T13:35:25.816Z,1.55
2022-10-05T13:36:35.408Z,1.70
2022-10-05T13:37:59.787Z,1.80
2022-10-05T13:39:26.716Z,1.77
2022-10-05T13:41:11.431Z,1.60
2022-10-05T13:42:26.780Z,1.70
2022-10-05T13:44:03.798Z,1.43
2022-10-05T13:45:29.746Z,1.60
2022-10-05T13:46:46.474Z,1.70
2022-10-05T13:48:30.479Z,1.70
2022-10-05T13:49:53.656Z,1.70
2022-10-05T13:51:23.517Z,1.70
2022-10-05T13:52:56.532Z,1.67
2022-10-05T13:54:28.722Z,1.88
2022-10-05T13:55:59.317Z,1.92
2022-10-05T13:57:27.579Z,1.90
2022-10-05T13:58:42.692Z,1.73
2022-10-05T13:59:57.685Z,1.60
2022-10-05T14:01:06.950Z,1.80
2022-10-05T14:02:22.825Z,1.73
2022-10-05T14:04:17.103Z,1.87
2022-10-05T14:05:31.025Z,1.70
2022-10-05T14:06:38.702Z,1.20
2022-10-05T14:08:18.568Z,1.70
2022-10-05T14:09:20.201Z,1.70
2022-10-05T14:10:45.525Z,1.70
2022-10-05T14:12:09.194Z,1.70
2022-10-05T14:13:47.076Z,1.70
2022-10-05T14:14:58.426Z,1.87
2022-10-05T14:16:26.200Z,2.00
2022-10-05T14:17:39.877Z,2.10
2022-10-05T14:19:18.587Z,1.60
2022-10-05T14:20:27.275Z,2.00
2022-10-05T14:21:47.232Z,1.93
2022-10-05T14:23:17.328Z,2.00
2022-10-05T14:24:46.972Z,2.00
2022-10-05T14:25:54.182Z,1.83
2022-10-05T14:26:58.304Z,1.87
2022-10-05T14:28:11.931Z,2.40
2022-10-05T14:29:23.985Z,2.33
2022-10-05T14:30:29.092Z,2.30
2022-10-05T14:31:36.292Z,2.00
2022-10-05T14:32:56.096Z,2.03
2022-10-05T14:34:24.933Z,1.90
2022-10-05T14:35:44.503Z,1.93
2022-10-05T14:36:46.251Z,1.90
2022-10-05T14:38:00.668Z,1.73
2022-10-05T14:39:05.019Z,1.90
2022-10-05T14:40:35.703Z,1.80
2022-10-05T14:41:48.716Z,1.70
2022-10-05T14:42:51.311Z,1.75
2022-10-05T14:44:13.201Z,1.63
2022-10-05T14:45:19.757Z,1.70
2022-10-05T14:46:29.856Z,1.70
2022-10-05T14:47:32.105Z,1.70
2022-10-05T14:48:45.722Z,1.60
2022-10-05T14:50:10.510Z,1.70
2022-10-05T14:51:36.251Z,1.93
2022-10-05T14:52:38.976Z,1.50
2022-10-05T14:53:57.084Z,1.70
2022-10-05T14:55:07.502Z,1.80
2022-10-05T14:56:32.138Z,1.80
2022-10-05T14:57:48.080Z,1.50
2022-10-05T14:59:23.088Z,1.60
2022-10-05T15:00:25.953Z,1.60
2022-10-05T15:01:31.759Z,1.80
2022-10-05T15:02:54.357Z,1.90
2022-10-05T15:04:23.733Z,1.50
2022-10-05T15:05:31.222Z,1.80
2022-10-05T15:06:55.220Z,1.63
2022-10-05T15:08:15.717Z,1.70
2022-10-05T15:09:23.349Z,1.70
2022-10-05T15:10:58.927Z,1.70
2022-10-05T15:12:03.920Z,1.70
2022-10-05T15:13:15.035Z,1.70
2022-10-05T15:14:30.032Z,1.80
2022-10-05T15:15:51.917Z,1.70
2022-10-05T15:17:03.136Z,1.80
2022-10-05T15:18:15.047Z,1.80
2022-10-05T15:19:54.085Z,1.77
2022-10-05T15:21:23.902Z,1.70
2022-10-05T15:22:49.527Z,1.50
2022-10-05T15:23:57.354Z,1.40
2022-10-05T15:25:43.038Z,1.40
2022-10-05T15:27:02.025Z,1.70
2022-10-05T15:28:17.377Z,1.70
2022-10-05T15:29:27.115Z,1.60
2022-10-05T15:30:34.624Z,1.60
2022-10-05T15:31:50.411Z,1.70
2022-10-05T15:33:15.365Z,1.60
2022-10-05T15:34:33.892Z,1.57
2022-10-05T15:36:00.505Z,1.90
2022-10-05T15:37:12.488Z,1.37
2022-10-05T15:38:32.723Z,1.80
2022-10-05T15:39:47.277Z,1.60
2022-10-05T15:41:07.088Z,1.70
2022-10-05T15:42:19.473Z,1.70
2022-10-05T15:43:25.488Z,2.20
2022-10-05T15:45:10.683Z,1.80
2022-10-05T15:46:17.396Z,1.60
2022-10-05T15:47:45.807Z,1.50
2022-10-05T15:49:18.470Z,1.70
2022-10-05T15:50:37.237Z,1.60
2022-10-05T15:51:57.348Z,1.50
2022-10-05T15:53:10.487Z,1.67
2022-10-05T15:54:42.093Z,1.40
2022-10-05T15:56:15.704Z,1.53
2022-10-05T15:57:58.102Z,1.67
2022-10-05T15:59:25.405Z,1.60
2022-10-05T16:00:30.147Z,1.80
2022-10-05T16:01:31.845Z,1.50
2022-10-05T16:03:05.468Z,1.67
2022-10-05T16:04:23.282Z,1.70
2022-10-05T16:05:56.802Z,1.90
2022-10-05T16:07:20.719Z,1.70
2022-10-05T16:08:58.963Z,2.00
2022-10-05T16:10:26.458Z,1.80
2022-10-05T16:11:57.506Z,1.87
2022-10-05T16:14:03.371Z,2.00
2022-10-05T16:15:34.292Z,1.90
2022-10-05T16:16:59.499Z,1.60
2022-10-05T16:18:14.605Z,1.90
2022-10-05T16:19:36.933Z,1.73
2022-10-05T16:20:59.925Z,1.67
2022-10-05T16:22:14.760Z,1.67
2022-10-05T16:23:25.249Z,1.70
2022-10-05T16:25:07.626Z,1.80
2022-10-05T16:26:26.476Z,2.10
2022-10-05T16:28:18.542Z,1.70
2022-10-05T16:29:57.349Z,1.47
2022-10-05T16:31:05.954Z,1.77
2022-10-05T16:32:37.389Z,1.70
2022-10-05T16:34:25.075Z,1.60
2022-10-05T16:35:46.678Z,1.90
2022-10-05T16:37:29.239Z,1.87
2022-10-05T16:38:49.125Z,1.63
2022-10-05T16:40:01.986Z,1.60
2022-10-05T16:41:28.305Z,1.60
2022-10-05T16:43:01.087Z,1.87
2022-10-05T16:44:16.136Z,1.77
2022-10-05T16:46:09.802Z,2.07
2022-10-05T16:47:48.648Z,1.90
2022-10-05T16:49:13.158Z,1.70
2022-10-05T16:50:46.157Z,2.20
2022-10-05T16:51:57.909Z,1.47
2022-10-05T16:53:10.979Z,1.73
2022-10-05T16:54:47.995Z,1.93
2022-10-05T16:56:01.081Z,2.20
2022-10-05T16:57:28.370Z,2.00
2022-10-05T16:59:04.164Z,1.67
2022-10-05T17:00:23.495Z,1.63
2022-10-05T17:01:58.621Z,2.00
2022-10-05T17:03:35.018Z,1.63
2022-10-05T17:05:18.341Z,1.73
2022-10-05T17:07:08.912Z,1.90
2022-10-05T17:08:40.533Z,2.00
2022-10-05T17:10:26.572Z,2.07
2022-10-05T17:11:52.891Z,2.03
2022-10-05T17:13:37.308Z,1.80
2022-10-05T17:15:24.391Z,1.80
2022-10-05T17:16:56.278Z,1.90
2022-10-05T17:18:48.905Z,2.30
2022-10-05T17:20:06.958Z,1.90
2022-10-05T17:22:03.068Z,1.73
2022-10-05T17:23:39.761Z,1.90
2022-10-05T17:24:58.579Z,1.90
2022-10-05T17:26:54.721Z,2.00
2022-10-05T17:28:22.063Z,1.97
2022-10-05T17:30:15.061Z,2.07
2022-10-05T17:31:23.454Z,1.80
2022-10-05T17:32:36.277Z,2.00
2022-10-05T17:33:59.813Z,1.90
2022-10-05T17:35:01.503Z,2.10
2022-10-05T17:36:04.622Z,1.90
2022-10-05T17:38:01.032Z,2.30
2022-10-05T17:39:46.645Z,1.93
2022-10-05T17:41:00.392Z,2.10
2022-10-05T17:42:40.403Z,2.10
2022-10-05T17:44:19.040Z,2.10
2022-10-05T17:45:20.687Z,2.03
2022-10-05T17:46:45.910Z,2.30
2022-10-05T17:47:58.016Z,2.03
2022-10-05T17:49:01.214Z,1.80
2022-10-05T17:50:29.892Z,2.20
2022-10-05T17:51:50.248Z,1.80
2022-10-05T17:53:54.875Z,1.93
2022-10-05T17:55:25.585Z,1.83
2022-10-05T17:56:29.581Z,1.83
2022-10-05T17:57:33.853Z,2.00
2022-10-05T17:58:35.486Z,1.77
2022-10-05T17:59:46.166Z,1.90
2022-10-05T18:00:57.034Z,2.10
2022-10-05T18:02:39.074Z,2.07
2022-10-05T18:03:48.877Z,2.00
2022-10-05T18:05:17.628Z,1.90
2022-10-05T18:06:48.035Z,1.73
2022-10-05T18:08:12.746Z,2.00
2022-10-05T18:09:16.859Z,1.93
2022-10-05T18:10:28.815Z,2.10
2022-10-05T18:11:40.074Z,2.00
2022-10-05T18:12:50.041Z,2.00
2022-10-05T18:14:20.052Z,1.87
2022-10-05T18:15:24.692Z,1.97
2022-10-05T18:17:12.535Z,1.90
2022-10-05T18:18:44.583Z,1.73
2022-10-05T18:20:15.273Z,2.13
2022-10-05T18:21:27.956Z,1.80
2022-10-05T18:22:30.194Z,1.70
2022-10-05T18:23:36.120Z,1.70
2022-10-05T18:25:27.105Z,1.80
2022-10-05T18:26:48.723Z,1.50
2022-10-05T18:28:23.156Z,1.83
2022-10-05T18:30:05.616Z,1.53
2022-10-05T18:31:26.193Z,1.73
2022-10-05T18:32:59.230Z,1.50
2022-10-05T18:34:09.856Z,1.53
2022-10-05T18:35:45.438Z,1.90
2022-10-05T18:37:25.519Z,1.80
2022-10-05T18:38:41.703Z,1.70
2022-10-05T18:40:21.736Z,1.73
2022-10-05T18:41:48.387Z,1.60
2022-10-05T18:43:02.453Z,1.80
2022-10-05T18:44:21.406Z,1.80
2022-10-05T18:46:00.373Z,1.50
2022-10-05T18:47:36.802Z,1.90
2022-10-05T18:49:25.241Z,1.80
2022-10-05T18:50:52.352Z,1.90
2022-10-05T18:52:17.867Z,2.10